Time,TemperatureF,DewpointF,PressureIn,WindDirection,WindDirectionDegrees,WindSpeedMPH,WindSpeedGustMPH,Humidity,HourlyPrecipIn,Conditions,Clouds,dailyrainin,SoftwareType,DateUTC
2013-05-22 00:11:00,49.5,28.0,30.14,South,173,7.0,9.0,44,0.00,,,0.00,weatherlink.com 1.10,2013-05-22 06:11:00,
2013-05-22 00:26:00,49.9,29.0,30.14,SSE,162,4.0,11.0,44,0.00,,,0.00,weatherlink.com 1.10,2013-05-22 06:26:00,
2013-05-22 00:41:00,49.6,28.0,30.14,SSE,165,2.0,6.0,44,0.00,,,0.00,weatherlink.com 1.10,2013-05-22 06:41:00,
2013-05-22 00:56:00,49.2,29.0,30.14,South,188,5.0,7.0,45,0.00,,,0.00,weatherlink.com 1.10,2013-05-22 06:56:00,
2013-05-22 01:11:00,48.8,28.0,30.14,SSW,202,6.0,7.0,45,0.00,,,0.00,weatherlink.com 1.10,2013-05-22 07:11:00,
2013-05-22 01:26:00,49.3,28.0,30.14,South,171,3.0,7.0,44,0.00,,,0.00,weatherlink.com 1.10,2013-05-22 07:26:00,
2013-05-22 01:41:00,49.3,29.0,30.13,South,190,2.0,4.0,45,0.00,,,0.00,weatherlink.com 1.10,2013-05-22 07:41:00,
2013-05-22 01:56:00,48.2,28.0,30.13,SSW,192,2.0,5.0,46,0.00,,,0.00,weatherlink.com 1.10,2013-05-22 07:56:00,
2013-05-22 02:11:00,47.6,28.0,30.12,South,182,5.0,6.0,47,0.00,,,0.00,weatherlink.com 1.10,2013-05-22 08:11:00,
2013-05-22 02:26:00,47.3,28.0,30.12,South,183,2.0,5.0,47,0.00,,,0.00,weatherlink.com 1.10,2013-05-22 08:26:00,
2013-05-22 02:41:00,47.1,28.0,30.12,South,176,2.0,4.0,48,0.00,,,0.00,weatherlink.com 1.10,2013-05-22 08:41:00,
2013-05-22 02:56:00,46.4,28.0,30.12,South,173,4.0,4.0,49,0.00,,,0.00,weatherlink.com 1.10,2013-05-22 08:56:00,
2013-05-22 03:11:00,46.5,28.0,30.12,SSW,192,5.0,8.0,49,0.00,,,0.00,weatherlink.com 1.10,2013-05-22 09:11:00,
2013-05-22 03:26:00,47.9,27.0,30.11,South,175,6.0,9.0,45,0.00,,,0.00,weatherlink.com 1.10,2013-05-22 09:26:00,
2013-05-22 03:41:00,49.0,27.0,30.11,SSW,192,7.0,11.0,42,0.00,,,0.00,weatherlink.com 1.10,2013-05-22 09:41:00,
2013-05-22 03:56:00,49.6,26.0,30.11,SSE,151,10.0,14.0,40,0.00,,,0.00,weatherlink.com 1.10,2013-05-22 09:56:00,
2013-05-22 04:11:00,49.8,26.0,30.11,South,184,11.0,13.0,39,0.00,,,0.00,weatherlink.com 1.10,2013-05-22 10:11:00,
2013-05-22 04:26:00,50.2,25.0,30.11,SSE,167,6.0,12.0,37,0.00,,,0.00,weatherlink.com 1.10,2013-05-22 10:26:00,
2013-05-22 04:41:00,50.4,24.0,30.11,South,176,8.0,13.0,35,0.00,,,0.00,weatherlink.com 1.10,2013-05-22 10:41:00,
2013-05-22 04:56:00,50.6,23.0,30.11,SSE,162,9.0,11.0,34,0.00,,,0.00,weatherlink.com 1.10,2013-05-22 10:56:00,
2013-05-22 05:11:00,50.8,22.0,30.11,South,185,8.0,13.0,33,0.00,,,0.00,weatherlink.com 1.10,2013-05-22 11:11:00,
2013-05-22 05:26:00,50.5,22.0,30.11,South,175,7.0,10.0,33,0.00,,,0.00,weatherlink.com 1.10,2013-05-22 11:26:00,
2013-05-22 05:41:00,50.3,22.0,30.11,South,169,5.0,9.0,33,0.00,,,0.00,weatherlink.com 1.10,2013-05-22 11:41:00,
2013-05-22 05:56:00,49.4,22.0,30.11,SSE,165,6.0,10.0,34,0.00,,,0.00,weatherlink.com 1.10,2013-05-22 11:56:00,
2013-05-22 06:11:00,49.3,23.0,30.11,South,176,9.0,11.0,35,0.00,,,0.00,weatherlink.com 1.10,2013-05-22 12:11:00,
2013-05-22 06:26:00,49.5,22.0,30.12,South,178,6.0,11.0,34,0.00,,,0.00,weatherlink.com 1.10,2013-05-22 12:26:00,
2013-05-22 06:41:00,50.2,23.0,30.12,SSE,168,6.0,12.0,34,0.00,,,0.00,weatherlink.com 1.10,2013-05-22 12:41:00,
2013-05-22 06:56:00,50.8,24.0,30.12,South,180,7.0,16.0,35,0.00,,,0.00,weatherlink.com 1.10,2013-05-22 12:56:00,
2013-05-22 07:11:00,51.6,23.0,30.12,SSE,164,5.0,14.0,33,0.00,,,0.00,weatherlink.com 1.10,2013-05-22 13:11:00,
2013-05-22 07:26:00,52.1,24.0,30.12,SSE,150,5.0,13.0,34,0.00,,,0.00,weatherlink.com 1.10,2013-05-22 13:26:00,
2013-05-22 07:41:00,53.0,24.0,30.12,SE,132,4.0,11.0,33,0.00,,,0.00,weatherlink.com 1.10,2013-05-22 13:41:00,
2013-05-22 07:57:00,53.9,24.0,30.12,South,180,4.0,11.0,32,0.00,,,0.00,weatherlink.com 1.10,2013-05-22 13:57:00,
2013-05-22 08:12:00,55.5,24.0,30.12,SSE,151,0.0,4.0,30,0.00,,,0.00,weatherlink.com 1.10,2013-05-22 14:12:00,
2013-05-22 08:27:00,58.3,27.0,30.12,ESE,123,2.0,4.0,30,0.00,,,0.00,weatherlink.com 1.10,2013-05-22 14:27:00,
2013-05-22 08:42:00,61.3,24.0,30.12,ESE,117,3.0,3.0,24,0.00,,,0.00,weatherlink.com 1.10,2013-05-22 14:42:00,
2013-05-22 08:57:00,63.6,26.0,30.12,East,84,6.0,6.0,24,0.00,,,0.00,weatherlink.com 1.10,2013-05-22 14:57:00,
2013-05-22 09:12:00,64.0,25.0,30.12,East,88,2.0,7.0,23,0.00,,,0.00,weatherlink.com 1.10,2013-05-22 15:12:00,
2013-05-22 09:27:00,65.0,24.0,30.11,SSE,165,5.0,9.0,21,0.00,,,0.00,weatherlink.com 1.10,2013-05-22 15:27:00,
2013-05-22 09:42:00,65.6,23.0,30.11,South,171,2.0,9.0,20,0.00,,,0.00,weatherlink.com 1.10,2013-05-22 15:42:00,
2013-05-22 09:57:00,65.8,22.0,30.11,WSW,256,3.0,12.0,19,0.00,,,0.00,weatherlink.com 1.10,2013-05-22 15:57:00,
2013-05-22 10:12:00,67.3,24.0,30.11,SSW,207,2.0,15.0,19,0.00,,,0.00,weatherlink.com 1.10,2013-05-22 16:12:00,
2013-05-22 10:27:00,67.3,22.0,30.11,SW,216,2.0,12.0,18,0.00,,,0.00,weatherlink.com 1.10,2013-05-22 16:27:00,
2013-05-22 10:42:00,68.5,23.0,30.11,South,180,4.0,15.0,18,0.00,,,0.00,weatherlink.com 1.10,2013-05-22 16:42:00,
2013-05-22 10:57:00,68.3,22.0,30.11,WSW,246,4.0,16.0,17,0.00,,,0.00,weatherlink.com 1.10,2013-05-22 16:57:00,
2013-05-22 11:12:00,68.6,22.0,30.10,SW,225,6.0,15.0,17,0.00,,,0.00,weatherlink.com 1.10,2013-05-22 17:12:00,
2013-05-22 11:27:00,69.6,21.0,30.10,SW,225,0.0,17.0,16,0.00,,,0.00,weatherlink.com 1.10,2013-05-22 17:27:00,
2013-05-22 11:42:00,69.9,22.0,30.10,SW,215,8.0,16.0,16,0.00,,,0.00,weatherlink.com 1.10,2013-05-22 17:42:00,
2013-05-22 11:57:00,69.2,22.0,30.10,WSW,246,4.0,17.0,17,0.00,,,0.00,weatherlink.com 1.10,2013-05-22 17:57:00,
2013-05-22 12:12:00,69.6,21.0,30.10,WNW,290,4.0,13.0,16,0.00,,,0.00,weatherlink.com 1.10,2013-05-22 18:12:00,
2013-05-22 12:27:00,70.7,21.0,30.09,SW,217,4.0,15.0,15,0.00,,,0.00,weatherlink.com 1.10,2013-05-22 18:27:00,
2013-05-22 12:42:00,70.1,23.0,30.09,SSE,167,13.0,15.0,17,0.00,,,0.00,weatherlink.com 1.10,2013-05-22 18:42:00,
2013-05-22 12:57:00,69.8,20.0,30.09,SW,224,0.0,19.0,15,0.00,,,0.00,weatherlink.com 1.10,2013-05-22 18:57:00,
2013-05-22 13:12:00,71.7,22.0,30.08,WSW,239,3.0,15.0,15,0.00,,,0.00,weatherlink.com 1.10,2013-05-22 19:12:00,
2013-05-22 13:27:00,73.1,21.0,30.08,SW,225,8.0,22.0,14,0.00,,,0.00,weatherlink.com 1.10,2013-05-22 19:27:00,
2013-05-22 13:42:00,72.0,22.0,30.07,SW,236,16.0,22.0,15,0.00,,,0.00,weatherlink.com 1.10,2013-05-22 19:42:00,
2013-05-22 13:57:00,74.4,24.0,30.07,West,262,8.0,15.0,15,0.00,,,0.00,weatherlink.com 1.10,2013-05-22 19:57:00,
2013-05-22 14:12:00,71.9,20.0,30.07,SW,231,11.0,22.0,14,0.00,,,0.00,weatherlink.com 1.10,2013-05-22 20:12:00,
2013-05-22 14:27:00,72.9,19.0,30.07,WSW,240,8.0,26.0,13,0.00,,,0.00,weatherlink.com 1.10,2013-05-22 20:27:00,
2013-05-22 14:42:00,74.1,22.0,30.07,West,279,6.0,21.0,14,0.00,,,0.00,weatherlink.com 1.10,2013-05-22 20:42:00,
2013-05-22 14:58:00,74.2,18.0,30.07,SW,216,13.0,24.0,12,0.00,,,0.00,weatherlink.com 1.10,2013-05-22 20:58:00,
2013-05-22 15:13:00,74.7,21.0,30.06,West,263,12.0,19.0,13,0.00,,,0.00,weatherlink.com 1.10,2013-05-22 21:13:00,
2013-05-22 15:28:00,74.5,19.0,30.07,WSW,247,13.0,22.0,12,0.00,,,0.00,weatherlink.com 1.10,2013-05-22 21:28:00,
2013-05-22 15:43:00,74.2,16.0,30.06,SW,229,2.0,20.0,11,0.00,,,0.00,weatherlink.com 1.10,2013-05-22 21:43:00,
2013-05-22 15:58:00,74.7,17.0,30.06,WSW,248,5.0,14.0,11,0.00,,,0.00,weatherlink.com 1.10,2013-05-22 21:58:00,
2013-05-22 16:13:00,75.3,17.0,30.06,SSW,205,8.0,19.0,11,0.00,,,0.00,weatherlink.com 1.10,2013-05-22 22:13:00,
2013-05-22 16:28:00,74.5,14.0,30.05,WSW,237,10.0,25.0,10,0.00,,,0.00,weatherlink.com 1.10,2013-05-22 22:28:00,
2013-05-22 16:43:00,73.9,14.0,30.06,SW,221,11.0,26.0,10,0.00,,,0.00,weatherlink.com 1.10,2013-05-22 22:43:00,
2013-05-22 16:58:00,73.9,14.0,30.06,SW,224,9.0,26.0,10,0.00,,,0.00,weatherlink.com 1.10,2013-05-22 22:58:00,
2013-05-22 17:13:00,73.5,16.0,30.06,SSW,209,8.0,22.0,11,0.00,,,0.00,weatherlink.com 1.10,2013-05-22 23:13:00,
2013-05-22 17:28:00,73.4,16.0,30.06,SSW,207,13.0,20.0,11,0.00,,,0.00,weatherlink.com 1.10,2013-05-22 23:28:00,
2013-05-22 17:43:00,72.8,15.0,30.05,SSW,200,14.0,27.0,11,0.00,,,0.00,weatherlink.com 1.10,2013-05-22 23:43:00,
2013-05-22 17:58:00,72.7,17.0,30.05,SSE,155,14.0,22.0,12,0.00,,,0.00,weatherlink.com 1.10,2013-05-22 23:58:00,
2013-05-22 18:13:00,71.7,14.0,30.06,South,181,12.0,23.0,11,0.00,,,0.00,weatherlink.com 1.10,2013-05-23 00:13:00,
2013-05-22 18:28:00,70.8,17.0,30.06,East,98,5.0,19.0,13,0.00,,,0.00,weatherlink.com 1.10,2013-05-23 00:28:00,
2013-05-22 18:43:00,70.4,19.0,30.06,SSE,168,5.0,11.0,14,0.00,,,0.00,weatherlink.com 1.10,2013-05-23 00:43:00,
2013-05-22 18:58:00,70.1,17.0,30.06,South,185,4.0,24.0,13,0.00,,,0.00,weatherlink.com 1.10,2013-05-23 00:58:00,
2013-05-22 19:13:00,69.7,18.0,30.07,SW,227,3.0,13.0,14,0.00,,,0.00,weatherlink.com 1.10,2013-05-23 01:13:00,
2013-05-22 19:28:00,68.8,19.0,30.07,South,175,4.0,14.0,15,0.00,,,0.00,weatherlink.com 1.10,2013-05-23 01:28:00,
2013-05-22 19:43:00,67.3,19.0,30.08,South,169,5.0,19.0,16,0.00,,,0.00,weatherlink.com 1.10,2013-05-23 01:43:00,
2013-05-22 19:58:00,66.5,19.0,30.08,South,177,18.0,19.0,16,0.00,,,0.00,weatherlink.com 1.10,2013-05-23 01:58:00,
2013-05-22 20:13:00,65.8,18.0,30.08,South,178,7.0,17.0,16,0.00,,,0.00,weatherlink.com 1.10,2013-05-23 02:13:00,
2013-05-22 20:28:00,64.9,19.0,30.08,South,173,6.0,11.0,17,0.00,,,0.00,weatherlink.com 1.10,2013-05-23 02:28:00,
2013-05-22 20:43:00,64.0,19.0,30.08,SSE,147,13.0,13.0,18,0.00,,,0.00,weatherlink.com 1.10,2013-05-23 02:43:00,
2013-05-22 20:58:00,63.1,20.0,30.08,ESE,104,7.0,12.0,19,0.00,,,0.00,weatherlink.com 1.10,2013-05-23 02:58:00,
2013-05-22 21:13:00,62.5,21.0,30.09,SSE,163,6.0,13.0,20,0.00,,,0.00,weatherlink.com 1.10,2013-05-23 03:13:00,
2013-05-22 21:28:00,61.7,20.0,30.09,SE,131,7.0,13.0,20,0.00,,,0.00,weatherlink.com 1.10,2013-05-23 03:28:00,
2013-05-22 21:43:00,61.6,20.0,30.10,South,188,9.0,15.0,20,0.00,,,0.00,weatherlink.com 1.10,2013-05-23 03:43:00,
2013-05-22 21:58:00,61.4,21.0,30.10,South,179,6.0,13.0,21,0.00,,,0.00,weatherlink.com 1.10,2013-05-23 03:58:00,
2013-05-22 23:28:00,59.4,22.0,30.10,SE,146,6.0,11.0,24,0.00,,,0.00,weatherlink.com 1.10,2013-05-23 05:28:00,
2013-05-22 23:43:00,58.9,22.0,30.10,SSE,164,5.0,12.0,24,0.00,,,0.00,weatherlink.com 1.10,2013-05-23 05:43:00,
2013-05-22 23:58:00,58.5,23.0,30.10,South,169,6.0,12.0,25,0.00,,,0.00,weatherlink.com 1.10,2013-05-23 05:58:00,